sensor_id;sensor_type;location;lat;lon;timestamp;pressure;altitude;pressure_sealevel;temperature;humidity
8451;BME280;4262;50.980;13.892;2023-11-18T00:02:14;89056.81;;;-142.97;70.35
8451;BME280;4262;50.980;13.892;2023-11-18T00:04:42;89078.50;;;-142.97;70.79
8451;BME280;4262;50.980;13.892;2023-11-18T00:07:09;89110.06;;;-142.97;70.75
8451;BME280;4262;50.980;13.892;2023-11-18T00:09:36;89149.50;;;-142.97;70.98
8451;BME280;4262;50.980;13.892;2023-11-18T00:12:04;89037.09;;;-142.97;70.53
8451;BME280;4262;50.980;13.892;2023-11-18T00:14:31;89027.25;;;-142.97;70.34
8451;BME280;4262;50.980;13.892;2023-11-18T00:16:58;89043.00;;;-142.97;70.64
8451;BME280;4262;50.980;13.892;2023-11-18T00:19:25;89003.56;;;-142.97;70.21
8451;BME280;4262;50.980;13.892;2023-11-18T00:21:53;89045.00;;;-142.97;70.53
8451;BME280;4262;50.980;13.892;2023-11-18T00:24:20;89056.81;;;-142.97;70.62
8451;BME280;4262;50.980;13.892;2023-11-18T00:26:48;88975.97;;;-142.97;70.35
8451;BME280;4262;50.980;13.892;2023-11-18T00:29:15;89050.91;;;-142.97;70.40
8451;BME280;4262;50.980;13.892;2023-11-18T00:31:42;89070.63;;;-142.97;70.72
8451;BME280;4262;50.980;13.892;2023-11-18T00:34:09;89084.41;;;-142.97;70.72
8451;BME280;4262;50.980;13.892;2023-11-18T00:36:37;89200.75;;;-142.97;71.00
8451;BME280;4262;50.980;13.892;2023-11-18T00:39:05;89157.38;;;-142.97;70.81
8451;BME280;4262;50.980;13.892;2023-11-18T00:41:32;89139.63;;;-142.97;70.88
8451;BME280;4262;50.980;13.892;2023-11-18T00:43:59;89210.63;;;-142.97;71.02
8451;BME280;4262;50.980;13.892;2023-11-18T00:46:26;89183.03;;;-142.97;70.80
8451;BME280;4262;50.980;13.892;2023-11-18T00:48:53;89246.13;;;-142.97;71.19
8451;BME280;4262;50.980;13.892;2023-11-18T00:51:23;89177.09;;;-142.97;70.81
8451;BME280;4262;50.980;13.892;2023-11-18T00:53:50;89196.81;;;-142.97;70.83
8451;BME280;4262;50.980;13.892;2023-11-18T00:56:21;89194.84;;;-142.97;71.31
8451;BME280;4262;50.980;13.892;2023-11-18T00:58:48;89311.19;;;-142.97;71.77
8451;BME280;4262;50.980;13.892;2023-11-18T01:01:15;89279.66;;;-142.97;71.52
8451;BME280;4262;50.980;13.892;2023-11-18T01:03:43;89273.72;;;-142.97;71.66
8451;BME280;4262;50.980;13.892;2023-11-18T01:06:10;89267.81;;;-142.97;71.54
8451;BME280;4262;50.980;13.892;2023-11-18T01:08:37;89301.34;;;-142.97;71.75
8451;BME280;4262;50.980;13.892;2023-11-18T01:11:05;89437.41;;;-142.97;72.28
8451;BME280;4262;50.980;13.892;2023-11-18T01:13:33;89435.44;;;-142.97;72.43
8451;BME280;4262;50.980;13.892;2023-11-18T01:16:00;89565.59;;;-142.97;72.90
8451;BME280;4262;50.980;13.892;2023-11-18T01:18:29;89478.81;;;-142.97;72.30
8451;BME280;4262;50.980;13.892;2023-11-18T01:20:56;89506.44;;;-142.97;72.68
8451;BME280;4262;50.980;13.892;2023-11-18T01:23:24;89549.81;;;-142.97;73.06
8451;BME280;4262;50.980;13.892;2023-11-18T01:25:51;89530.09;;;-142.97;72.54
8451;BME280;4262;50.980;13.892;2023-11-18T01:28:18;89585.31;;;-142.97;72.67
8451;BME280;4262;50.980;13.892;2023-11-18T01:30:46;89486.72;;;-142.97;72.66
8451;BME280;4262;50.980;13.892;2023-11-18T01:33:14;89323.03;;;-142.97;71.99
8451;BME280;4262;50.980;13.892;2023-11-18T01:35:41;89360.50;;;-142.97;71.71
8451;BME280;4262;50.980;13.892;2023-11-18T01:38:09;89328.94;;;-142.97;71.81
8451;BME280;4262;50.980;13.892;2023-11-18T01:40:37;89299.38;;;-142.97;71.51
8451;BME280;4262;50.980;13.892;2023-11-18T01:43:04;89186.97;;;-142.97;71.06
8451;BME280;4262;50.980;13.892;2023-11-18T01:45:37;89185.00;;;-142.97;71.37
8451;BME280;4262;50.980;13.892;2023-11-18T01:48:05;89358.53;;;-142.97;72.28
8451;BME280;4262;50.980;13.892;2023-11-18T01:50:35;89157.38;;;-142.97;71.16
8451;BME280;4262;50.980;13.892;2023-11-18T01:53:03;89167.25;;;-142.97;71.25
8451;BME280;4262;50.980;13.892;2023-11-18T01:55:31;89076.53;;;-142.97;70.59
8451;BME280;4262;50.980;13.892;2023-11-18T01:58:00;89058.78;;;-142.97;70.87
8451;BME280;4262;50.980;13.892;2023-11-18T02:00:34;89139.63;;;-142.97;71.19
8451;BME280;4262;50.980;13.892;2023-11-18T02:03:01;89054.84;;;-142.97;70.54
8451;BME280;4262;50.980;13.892;2023-11-18T02:05:29;89048.94;;;-142.97;70.60
8451;BME280;4262;50.980;13.892;2023-11-18T02:07:58;89181.03;;;-142.97;71.21
8451;BME280;4262;50.980;13.892;2023-11-18T02:10:26;89186.97;;;-142.97;71.29
8451;BME280;4262;50.980;13.892;2023-11-18T02:12:56;89315.13;;;-142.97;71.99
8451;BME280;4262;50.980;13.892;2023-11-18T02:15:24;89110.06;;;-142.97;70.87
8451;BME280;4262;50.980;13.892;2023-11-18T02:17:53;89283.59;;;-142.97;71.69
8451;BME280;4262;50.980;13.892;2023-11-18T02:20:21;89287.53;;;-142.97;71.44
8451;BME280;4262;50.980;13.892;2023-11-18T02:22:51;89303.31;;;-142.97;71.46
8451;BME280;4262;50.980;13.892;2023-11-18T02:25:18;89332.88;;;-142.97;71.67
8451;BME280;4262;50.980;13.892;2023-11-18T02:27:48;89299.38;;;-142.97;71.83
8451;BME280;4262;50.980;13.892;2023-11-18T02:30:18;89376.28;;;-142.97;71.87
8451;BME280;4262;50.980;13.892;2023-11-18T02:32:49;89455.16;;;-142.97;71.88
8451;BME280;4262;50.980;13.892;2023-11-18T02:35:23;89409.81;;;-142.97;72.29
8451;BME280;4262;50.980;13.892;2023-11-18T02:37:53;89472.91;;;-142.97;72.38
8451;BME280;4262;50.980;13.892;2023-11-18T02:40:26;89388.09;;;-142.97;71.90
8451;BME280;4262;50.980;13.892;2023-11-18T02:42:58;89407.81;;;-142.97;72.31
8451;BME280;4262;50.980;13.892;2023-11-18T02:45:26;89344.72;;;-142.97;71.88
8451;BME280;4262;50.980;13.892;2023-11-18T02:47:54;89407.81;;;-142.97;71.99
8451;BME280;4262;50.980;13.892;2023-11-18T02:50:23;89279.66;;;-142.97;71.48
8451;BME280;4262;50.980;13.892;2023-11-18T02:52:50;89102.16;;;-142.97;70.87
8451;BME280;4262;50.980;13.892;2023-11-18T02:55:17;88997.66;;;-142.97;70.30
8451;BME280;4262;50.980;13.892;2023-11-18T02:57:47;89021.31;;;-142.97;70.81
8451;BME280;4262;50.980;13.892;2023-11-18T03:00:16;89046.97;;;-142.97;70.58
8451;BME280;4262;50.980;13.892;2023-11-18T03:02:45;88940.47;;;-142.97;69.98
8451;BME280;4262;50.980;13.892;2023-11-18T03:05:12;89048.94;;;-142.97;70.68
8451;BME280;4262;50.980;13.892;2023-11-18T03:07:41;89125.84;;;-142.97;70.97
8451;BME280;4262;50.980;13.892;2023-11-18T03:10:10;89078.50;;;-142.97;70.57
8451;BME280;4262;50.980;13.892;2023-11-18T03:12:46;89114.00;;;-142.97;71.22
8451;BME280;4262;50.980;13.892;2023-11-18T03:15:12;89141.59;;;-142.97;70.98
8451;BME280;4262;50.980;13.892;2023-11-18T03:17:45;89163.28;;;-142.97;71.51
8451;BME280;4262;50.980;13.892;2023-11-18T03:20:14;89100.19;;;-142.97;70.54
8451;BME280;4262;50.980;13.892;2023-11-18T03:22:43;89082.44;;;-142.97;70.92
8451;BME280;4262;50.980;13.892;2023-11-18T03:25:10;89104.16;;;-142.97;70.61
8451;BME280;4262;50.980;13.892;2023-11-18T03:27:38;89102.16;;;-142.97;71.10
8451;BME280;4262;50.980;13.892;2023-11-18T03:30:06;89257.94;;;-142.97;71.63
8451;BME280;4262;50.980;13.892;2023-11-18T03:32:33;89224.44;;;-142.97;71.45
8451;BME280;4262;50.980;13.892;2023-11-18T03:35:02;89232.31;;;-142.97;71.80
8451;BME280;4262;50.980;13.892;2023-11-18T03:37:30;89252.03;;;-142.97;71.40
8451;BME280;4262;50.980;13.892;2023-11-18T03:39:57;89255.97;;;-142.97;71.49
8451;BME280;4262;50.980;13.892;2023-11-18T03:42:24;89338.81;;;-142.97;71.83
8451;BME280;4262;50.980;13.892;2023-11-18T03:44:53;89317.13;;;-142.97;72.12
8451;BME280;4262;50.980;13.892;2023-11-18T03:47:20;89490.66;;;-142.97;72.21
8451;BME280;4262;50.980;13.892;2023-11-18T03:49:49;89500.53;;;-142.97;73.06
8451;BME280;4262;50.980;13.892;2023-11-18T03:52:18;89492.63;;;-142.97;72.68
8451;BME280;4262;50.980;13.892;2023-11-18T03:54:45;89609.00;;;-142.97;73.52
8451;BME280;4262;50.980;13.892;2023-11-18T03:57:12;89668.16;;;-142.97;73.35
8451;BME280;4262;50.980;13.892;2023-11-18T03:59:39;89768.72;;;-142.97;74.14
8451;BME280;4262;50.980;13.892;2023-11-18T04:02:06;89788.47;;;-142.97;74.36
8451;BME280;4262;50.980;13.892;2023-11-18T04:04:33;89827.91;;;-142.97;74.77
8451;BME280;4262;50.980;13.892;2023-11-18T04:07:00;89831.84;;;-142.97;74.53
8451;BME280;4262;50.980;13.892;2023-11-18T04:09:28;89737.19;;;-142.97;74.67
8451;BME280;4262;50.980;13.892;2023-11-18T04:11:56;89646.47;;;-142.97;73.60
8451;BME280;4262;50.980;13.892;2023-11-18T04:14:24;89741.13;;;-142.97;73.66
8451;BME280;4262;50.980;13.892;2023-11-18T04:16:51;89770.72;;;-142.97;74.26
8451;BME280;4262;50.980;13.892;2023-11-18T04:19:19;89857.50;;;-142.97;74.84
8451;BME280;4262;50.980;13.892;2023-11-18T04:21:46;89739.16;;;-142.97;73.97
8451;BME280;4262;50.980;13.892;2023-11-18T04:24:15;89758.88;;;-142.97;74.17
8451;BME280;4262;50.980;13.892;2023-11-18T04:26:43;89772.69;;;-142.97;73.80
8451;BME280;4262;50.980;13.892;2023-11-18T04:29:10;89800.28;;;-142.97;74.34
8451;BME280;4262;50.980;13.892;2023-11-18T04:31:37;89772.69;;;-142.97;74.05
8451;BME280;4262;50.980;13.892;2023-11-18T04:34:04;89772.69;;;-142.97;74.10
8451;BME280;4262;50.980;13.892;2023-11-18T04:36:31;89733.22;;;-142.97;74.11
8451;BME280;4262;50.980;13.892;2023-11-18T04:38:58;89741.13;;;-142.97;73.88
8451;BME280;4262;50.980;13.892;2023-11-18T04:41:25;89632.66;;;-142.97;73.51
8451;BME280;4262;50.980;13.892;2023-11-18T04:43:53;89650.41;;;-142.97;73.37
8451;BME280;4262;50.980;13.892;2023-11-18T04:46:21;89756.91;;;-142.97;74.19
8451;BME280;4262;50.980;13.892;2023-11-18T04:48:48;89768.72;;;-142.97;73.89
8451;BME280;4262;50.980;13.892;2023-11-18T04:51:15;89750.97;;;-142.97;73.78
8451;BME280;4262;50.980;13.892;2023-11-18T04:53:43;89752.97;;;-142.97;73.93
8451;BME280;4262;50.980;13.892;2023-11-18T04:56:10;89784.50;;;-142.97;74.28
8451;BME280;4262;50.980;13.892;2023-11-18T04:58:37;89816.06;;;-142.97;74.31
8451;BME280;4262;50.980;13.892;2023-11-18T05:01:06;89782.53;;;-142.97;73.88
8451;BME280;4262;50.980;13.892;2023-11-18T05:03:34;89833.81;;;-142.97;74.34
8451;BME280;4262;50.980;13.892;2023-11-18T05:06:01;89829.88;;;-142.97;74.09
8451;BME280;4262;50.980;13.892;2023-11-18T05:08:30;89827.91;;;-142.97;74.58
8451;BME280;4262;50.980;13.892;2023-11-18T05:10:59;89816.06;;;-142.97;74.22
8451;BME280;4262;50.980;13.892;2023-11-18T05:13:25;89837.75;;;-142.97;74.37
8451;BME280;4262;50.980;13.892;2023-11-18T05:15:52;89735.22;;;-142.97;73.49
8451;BME280;4262;50.980;13.892;2023-11-18T05:18:21;89743.09;;;-142.97;73.92
8451;BME280;4262;50.980;13.892;2023-11-18T05:20:48;89812.13;;;-142.97;74.54
8451;BME280;4262;50.980;13.892;2023-11-18T05:23:15;89780.56;;;-142.97;74.42
8451;BME280;4262;50.980;13.892;2023-11-18T05:25:43;89605.03;;;-142.97;73.26
8451;BME280;4262;50.980;13.892;2023-11-18T05:28:10;89676.03;;;-142.97;73.58
8451;BME280;4262;50.980;13.892;2023-11-18T05:30:37;89545.88;;;-142.97;72.69
8451;BME280;4262;50.980;13.892;2023-11-18T05:33:04;89506.44;;;-142.97;72.71
8451;BME280;4262;50.980;13.892;2023-11-18T05:35:33;89650.41;;;-142.97;73.37
8451;BME280;4262;50.980;13.892;2023-11-18T05:38:00;89630.69;;;-142.97;73.25
8451;BME280;4262;50.980;13.892;2023-11-18T05:40:28;89670.13;;;-142.97;73.73
8451;BME280;4262;50.980;13.892;2023-11-18T05:42:55;89555.75;;;-142.97;72.85
8451;BME280;4262;50.980;13.892;2023-11-18T05:45:24;89451.22;;;-142.97;72.45
8451;BME280;4262;50.980;13.892;2023-11-18T05:47:57;89577.44;;;-142.97;72.83
8451;BME280;4262;50.980;13.892;2023-11-18T05:50:24;89435.44;;;-142.97;72.91
8451;BME280;4262;50.980;13.892;2023-11-18T05:52:53;89628.72;;;-142.97;73.23
8451;BME280;4262;50.980;13.892;2023-11-18T05:55:21;89679.97;;;-142.97;73.50
8451;BME280;4262;50.980;13.892;2023-11-18T05:57:48;89624.75;;;-142.97;73.96
8451;BME280;4262;50.980;13.892;2023-11-18T06:00:15;89804.25;;;-142.97;74.06
8451;BME280;4262;50.980;13.892;2023-11-18T06:02:44;89883.13;;;-142.97;74.82
8451;BME280;4262;50.980;13.892;2023-11-18T06:05:12;89914.69;;;-142.97;75.09
8451;BME280;4262;50.980;13.892;2023-11-18T06:07:39;89814.09;;;-142.97;75.45
8451;BME280;4262;50.980;13.892;2023-11-18T06:10:11;89958.06;;;-142.97;75.46
8451;BME280;4262;50.980;13.892;2023-11-18T06:12:38;89956.09;;;-142.97;75.63
8451;BME280;4262;50.980;13.892;2023-11-18T06:15:07;89985.69;;;-142.97;75.74
8451;BME280;4262;50.980;13.892;2023-11-18T06:17:36;89969.91;;;-142.97;75.64
8451;BME280;4262;50.980;13.892;2023-11-18T06:20:04;89985.69;;;-142.97;76.13
8451;BME280;4262;50.980;13.892;2023-11-18T06:22:32;89997.53;;;-142.97;76.10
8451;BME280;4262;50.980;13.892;2023-11-18T06:24:59;90064.59;;;-142.97;76.98
8451;BME280;4262;50.980;13.892;2023-11-18T06:27:28;89997.53;;;-142.97;77.19
8451;BME280;4262;50.980;13.892;2023-11-18T06:29:55;90044.88;;;-142.97;76.75
8451;BME280;4262;50.980;13.892;2023-11-18T06:32:22;89950.19;;;-142.97;77.36
8451;BME280;4262;50.980;13.892;2023-11-18T06:34:51;89922.56;;;-142.97;77.73
8451;BME280;4262;50.980;13.892;2023-11-18T06:37:18;90017.25;;;-142.97;76.72
8451;BME280;4262;50.980;13.892;2023-11-18T06:39:45;89964.00;;;-142.97;77.02
8451;BME280;4262;50.980;13.892;2023-11-18T06:42:14;90001.47;;;-142.97;76.48
8451;BME280;4262;50.980;13.892;2023-11-18T06:44:42;89985.69;;;-142.97;76.31
8451;BME280;4262;50.980;13.892;2023-11-18T06:47:09;90036.97;;;-142.97;76.70
8451;BME280;4262;50.980;13.892;2023-11-18T06:49:38;89904.81;;;-142.97;77.73
8451;BME280;4262;50.980;13.892;2023-11-18T06:52:06;89827.91;;;-142.97;78.14
8451;BME280;4262;50.980;13.892;2023-11-18T06:54:35;89861.44;;;-142.97;78.01
8451;BME280;4262;50.980;13.892;2023-11-18T06:57:03;89806.22;;;-142.97;78.27
8451;BME280;4262;50.980;13.892;2023-11-18T06:59:30;89384.16;;;-142.97;78.83
8451;BME280;4262;50.980;13.892;2023-11-18T07:01:58;89614.91;;;-142.97;78.51
8451;BME280;4262;50.980;13.892;2023-11-18T07:04:25;89691.81;;;-142.97;78.20
8451;BME280;4262;50.980;13.892;2023-11-18T07:06:52;89790.44;;;-142.97;78.05
8451;BME280;4262;50.980;13.892;2023-11-18T07:09:19;89512.34;;;-142.97;78.27
8451;BME280;4262;50.980;13.892;2023-11-18T07:11:47;89581.38;;;-142.97;78.09
8451;BME280;4262;50.980;13.892;2023-11-18T07:14:14;89545.88;;;-142.97;78.15
8451;BME280;4262;50.980;13.892;2023-11-18T07:16:41;89467.00;;;-142.97;78.44
8451;BME280;4262;50.980;13.892;2023-11-18T07:19:10;89786.50;;;-142.97;77.98
8451;BME280;4262;50.980;13.892;2023-11-18T07:21:43;89758.88;;;-142.97;77.67
8451;BME280;4262;50.980;13.892;2023-11-18T07:24:10;89770.72;;;-142.97;77.81
8451;BME280;4262;50.980;13.892;2023-11-18T07:26:37;89806.22;;;-142.97;77.51
8451;BME280;4262;50.980;13.892;2023-11-18T07:29:04;89855.50;;;-142.97;77.71
8451;BME280;4262;50.980;13.892;2023-11-18T07:31:33;89855.50;;;-142.97;77.51
8451;BME280;4262;50.980;13.892;2023-11-18T07:34:02;89883.13;;;-142.97;77.04
8451;BME280;4262;50.980;13.892;2023-11-18T07:36:30;89711.53;;;-142.97;77.35
8451;BME280;4262;50.980;13.892;2023-11-18T07:38:57;89843.69;;;-142.97;76.61
8451;BME280;4262;50.980;13.892;2023-11-18T07:41:26;89812.13;;;-142.97;76.48
8451;BME280;4262;50.980;13.892;2023-11-18T07:43:53;89814.09;;;-142.97;75.41
8451;BME280;4262;50.980;13.892;2023-11-18T07:46:21;89725.34;;;-142.97;74.46
8451;BME280;4262;50.980;13.892;2023-11-18T07:48:48;89788.47;;;-142.97;74.93
8451;BME280;4262;50.980;13.892;2023-11-18T07:51:17;89664.22;;;-142.97;74.01
8451;BME280;4262;50.980;13.892;2023-11-18T07:53:48;89678.00;;;-142.97;74.09
8451;BME280;4262;50.980;13.892;2023-11-18T07:56:15;89622.78;;;-142.97;74.01
8451;BME280;4262;50.980;13.892;2023-11-18T07:58:43;89638.56;;;-142.97;73.88
8451;BME280;4262;50.980;13.892;2023-11-18T08:01:12;89512.34;;;-142.97;73.25
8451;BME280;4262;50.980;13.892;2023-11-18T08:03:39;89583.34;;;-142.97;73.90
8451;BME280;4262;50.980;13.892;2023-11-18T08:06:07;89528.13;;;-142.97;73.60
8451;BME280;4262;50.980;13.892;2023-11-18T08:08:35;89607.00;;;-142.97;73.55
8451;BME280;4262;50.980;13.892;2023-11-18T08:11:05;89691.81;;;-142.97;74.53
8451;BME280;4262;50.980;13.892;2023-11-18T08:13:33;89727.31;;;-142.97;74.23
8451;BME280;4262;50.980;13.892;2023-11-18T08:16:00;89768.72;;;-142.97;75.08
8451;BME280;4262;50.980;13.892;2023-11-18T08:18:27;89741.13;;;-142.97;74.78
8451;BME280;4262;50.980;13.892;2023-11-18T08:20:56;89678.00;;;-142.97;74.49
8451;BME280;4262;50.980;13.892;2023-11-18T08:23:25;89674.06;;;-142.97;74.45
8451;BME280;4262;50.980;13.892;2023-11-18T08:25:53;89512.34;;;-142.97;74.03
8451;BME280;4262;50.980;13.892;2023-11-18T08:28:22;89405.84;;;-142.97;73.24
8451;BME280;4262;50.980;13.892;2023-11-18T08:30:49;89425.56;;;-142.97;73.29
8451;BME280;4262;50.980;13.892;2023-11-18T08:33:17;89384.16;;;-142.97;72.87
8451;BME280;4262;50.980;13.892;2023-11-18T08:35:44;89417.69;;;-142.97;73.23
8451;BME280;4262;50.980;13.892;2023-11-18T08:38:11;89252.03;;;-142.97;72.31
8451;BME280;4262;50.980;13.892;2023-11-18T08:40:38;89208.66;;;-142.97;72.13
8451;BME280;4262;50.980;13.892;2023-11-18T08:43:05;89143.56;;;-142.97;71.93
8451;BME280;4262;50.980;13.892;2023-11-18T08:45:35;89171.19;;;-142.97;72.10
8451;BME280;4262;50.980;13.892;2023-11-18T08:48:04;89117.94;;;-142.97;71.51
8451;BME280;4262;50.980;13.892;2023-11-18T08:50:35;89106.13;;;-142.97;71.32
8451;BME280;4262;50.980;13.892;2023-11-18T08:53:02;89159.34;;;-142.97;71.68
8451;BME280;4262;50.980;13.892;2023-11-18T08:55:32;89186.97;;;-142.97;71.81
8451;BME280;4262;50.980;13.892;2023-11-18T08:58:05;89261.91;;;-142.97;72.35
8451;BME280;4262;50.980;13.892;2023-11-18T09:00:42;89289.50;;;-142.97;72.61
8451;BME280;4262;50.980;13.892;2023-11-18T09:03:14;89232.31;;;-142.97;72.22
8451;BME280;4262;50.980;13.892;2023-11-18T09:05:51;89123.88;;;-142.97;71.54
8451;BME280;4262;50.980;13.892;2023-11-18T09:08:25;89108.09;;;-142.97;71.38
8451;BME280;4262;50.980;13.892;2023-11-18T09:10:53;89198.78;;;-142.97;71.94
8451;BME280;4262;50.980;13.892;2023-11-18T09:13:21;88956.25;;;-142.97;70.69
8451;BME280;4262;50.980;13.892;2023-11-18T09:15:50;88930.63;;;-142.97;70.51
8451;BME280;4262;50.980;13.892;2023-11-18T09:18:16;88979.91;;;-142.97;70.63
8451;BME280;4262;50.980;13.892;2023-11-18T09:20:45;88879.34;;;-142.97;70.71
8451;BME280;4262;50.980;13.892;2023-11-18T09:23:13;88492.91;;;-142.97;70.08
8451;BME280;4262;50.980;13.892;2023-11-18T09:25:41;88203.09;;;-142.97;69.46
8451;BME280;4262;50.980;13.892;2023-11-18T09:28:13;88140.00;;;-142.97;69.14
8451;BME280;4262;50.980;13.892;2023-11-18T09:30:41;88100.59;;;-142.97;68.60
8451;BME280;4262;50.980;13.892;2023-11-18T09:33:17;88096.66;;;-142.97;68.05
8451;BME280;4262;50.980;13.892;2023-11-18T09:35:52;88004.00;;;-142.97;67.28
8451;BME280;4262;50.980;13.892;2023-11-18T09:38:22;88130.16;;;-142.97;67.83
8451;BME280;4262;50.980;13.892;2023-11-18T09:40:51;88063.13;;;-142.97;67.65
8451;BME280;4262;50.980;13.892;2023-11-18T09:43:19;88057.22;;;-142.97;67.98
8451;BME280;4262;50.980;13.892;2023-11-18T09:45:49;87990.19;;;-142.97;67.68
8451;BME280;4262;50.980;13.892;2023-11-18T09:48:22;87791.09;;;-142.97;67.13
8451;BME280;4262;50.980;13.892;2023-11-18T09:50:52;87698.47;;;-142.97;67.03
8451;BME280;4262;50.980;13.892;2023-11-18T09:53:20;87544.72;;;-142.97;66.20
8451;BME280;4262;50.980;13.892;2023-11-18T09:55:59;87162.38;;;-142.97;64.50
8451;BME280;4262;50.980;13.892;2023-11-18T09:58:35;87132.81;;;-142.97;62.60
8451;BME280;4262;50.980;13.892;2023-11-18T10:01:06;87067.78;;;-142.97;62.88
8451;BME280;4262;50.980;13.892;2023-11-18T10:03:40;87008.66;;;-142.97;62.91
8451;BME280;4262;50.980;13.892;2023-11-18T10:06:12;87028.34;;;-142.97;61.88
8451;BME280;4262;50.980;13.892;2023-11-18T10:08:40;87020.47;;;-142.97;61.22
8451;BME280;4262;50.980;13.892;2023-11-18T10:11:12;86977.13;;;-142.97;61.81
8451;BME280;4262;50.980;13.892;2023-11-18T10:13:39;86929.81;;;-142.97;61.28
8451;BME280;4262;50.980;13.892;2023-11-18T10:16:07;86979.09;;;-142.97;62.10
8451;BME280;4262;50.980;13.892;2023-11-18T10:18:34;86916.03;;;-142.97;61.28
8451;BME280;4262;50.980;13.892;2023-11-18T10:21:04;86508.13;;;-142.97;58.14
8451;BME280;4262;50.980;13.892;2023-11-18T10:23:33;86169.22;;;-142.97;55.52
8451;BME280;4262;50.980;13.892;2023-11-18T10:26:04;85832.34;;;-142.97;52.83
8451;BME280;4262;50.980;13.892;2023-11-18T10:28:34;85917.06;;;-142.97;49.49
8451;BME280;4262;50.980;13.892;2023-11-18T10:31:04;85771.28;;;-142.97;47.24
8451;BME280;4262;50.980;13.892;2023-11-18T10:33:32;85702.31;;;-142.97;45.78
8451;BME280;4262;50.980;13.892;2023-11-18T10:36:04;85804.75;;;-142.97;44.62
8451;BME280;4262;50.980;13.892;2023-11-18T10:38:39;85718.06;;;-142.97;45.05
8451;BME280;4262;50.980;13.892;2023-11-18T10:41:09;86029.34;;;-142.97;45.79
8451;BME280;4262;50.980;13.892;2023-11-18T10:43:37;86155.44;;;-142.97;45.83
8451;BME280;4262;50.980;13.892;2023-11-18T10:46:08;86206.66;;;-142.97;47.57
8451;BME280;4262;50.980;13.892;2023-11-18T10:48:43;86431.28;;;-142.97;49.77
8451;BME280;4262;50.980;13.892;2023-11-18T10:51:12;86512.06;;;-142.97;51.52
8451;BME280;4262;50.980;13.892;2023-11-18T10:53:40;86628.31;;;-142.97;51.13
8451;BME280;4262;50.980;13.892;2023-11-18T10:56:19;86632.25;;;-142.97;51.12
8451;BME280;4262;50.980;13.892;2023-11-18T10:58:50;86640.16;;;-142.97;51.72
8451;BME280;4262;50.980;13.892;2023-11-18T11:01:27;86691.38;;;-142.97;51.90
8451;BME280;4262;50.980;13.892;2023-11-18T11:03:54;86833.25;;;-142.97;51.37
8451;BME280;4262;50.980;13.892;2023-11-18T11:06:24;86807.63;;;-142.97;51.68
8451;BME280;4262;50.980;13.892;2023-11-18T11:08:51;86784.00;;;-142.97;51.63
8451;BME280;4262;50.980;13.892;2023-11-18T11:11:21;86860.84;;;-142.97;51.19
8451;BME280;4262;50.980;13.892;2023-11-18T11:13:49;86782.03;;;-142.97;52.21
8451;BME280;4262;50.980;13.892;2023-11-18T11:16:21;86772.16;;;-142.97;51.75
8451;BME280;4262;50.980;13.892;2023-11-18T11:18:55;86780.06;;;-142.97;52.26
8451;BME280;4262;50.980;13.892;2023-11-18T11:21:26;86758.38;;;-142.97;51.22
8451;BME280;4262;50.980;13.892;2023-11-18T11:24:00;86711.09;;;-142.97;51.66
8451;BME280;4262;50.980;13.892;2023-11-18T11:26:40;86728.81;;;-142.97;52.22
8451;BME280;4262;50.980;13.892;2023-11-18T11:29:18;86687.44;;;-142.97;50.18
8451;BME280;4262;50.980;13.892;2023-11-18T11:32:00;86740.63;;;-142.97;50.23
8451;BME280;4262;50.980;13.892;2023-11-18T11:34:30;86760.34;;;-142.97;49.42
8451;BME280;4262;50.980;13.892;2023-11-18T11:37:01;86720.94;;;-142.97;49.81
8451;BME280;4262;50.980;13.892;2023-11-18T11:39:31;86665.75;;;-142.97;48.95
8451;BME280;4262;50.980;13.892;2023-11-18T11:42:03;86622.41;;;-142.97;48.03
8451;BME280;4262;50.980;13.892;2023-11-18T11:44:35;86626.34;;;-142.97;47.93
8451;BME280;4262;50.980;13.892;2023-11-18T11:47:08;86624.38;;;-142.97;47.50
8451;BME280;4262;50.980;13.892;2023-11-18T11:49:45;86608.63;;;-142.97;46.56
8451;BME280;4262;50.980;13.892;2023-11-18T11:52:21;86679.56;;;-142.97;47.35
8451;BME280;4262;50.980;13.892;2023-11-18T11:54:59;86693.34;;;-142.97;47.32
8451;BME280;4262;50.980;13.892;2023-11-18T11:57:31;86683.50;;;-142.97;46.85
8451;BME280;4262;50.980;13.892;2023-11-18T12:00:03;86782.03;;;-142.97;46.78
8451;BME280;4262;50.980;13.892;2023-11-18T12:02:47;86793.84;;;-142.97;47.81
8451;BME280;4262;50.980;13.892;2023-11-18T12:05:15;86805.66;;;-142.97;47.52
8451;BME280;4262;50.980;13.892;2023-11-18T12:07:46;86854.94;;;-142.97;48.51
8451;BME280;4262;50.980;13.892;2023-11-18T12:10:13;86780.06;;;-142.97;48.27
8451;BME280;4262;50.980;13.892;2023-11-18T12:12:46;86854.94;;;-142.97;47.93
8451;BME280;4262;50.980;13.892;2023-11-18T12:15:13;86827.34;;;-142.97;47.67
8451;BME280;4262;50.980;13.892;2023-11-18T12:18:09;86819.47;;;-142.97;47.77
8451;BME280;4262;50.980;13.892;2023-11-18T12:20:39;86778.09;;;-142.97;47.79
8451;BME280;4262;50.980;13.892;2023-11-18T12:23:09;86831.28;;;-142.97;47.93
8451;BME280;4262;50.980;13.892;2023-11-18T12:25:41;86813.56;;;-142.97;47.82
8451;BME280;4262;50.980;13.892;2023-11-18T12:28:09;86770.19;;;-142.97;47.61
8451;BME280;4262;50.980;13.892;2023-11-18T12:30:38;86650.00;;;-142.97;46.72
8451;BME280;4262;50.980;13.892;2023-11-18T12:33:09;86718.97;;;-142.97;46.61
8451;BME280;4262;50.980;13.892;2023-11-18T12:35:46;86709.13;;;-142.97;46.82
8451;BME280;4262;50.980;13.892;2023-11-18T12:38:42;86732.75;;;-142.97;46.98
8451;BME280;4262;50.980;13.892;2023-11-18T12:41:32;86738.66;;;-142.97;47.23
8451;BME280;4262;50.980;13.892;2023-11-18T12:44:15;86190.91;;;-142.97;47.17
8451;BME280;4262;50.980;13.892;2023-11-18T12:46:48;86720.94;;;-142.97;46.48
8451;BME280;4262;50.980;13.892;2023-11-18T12:49:17;86646.06;;;-142.97;47.32
8451;BME280;4262;50.980;13.892;2023-11-18T12:51:50;86695.31;;;-142.97;46.55
8451;BME280;4262;50.980;13.892;2023-11-18T12:54:19;86673.66;;;-142.97;46.48
8451;BME280;4262;50.980;13.892;2023-11-18T12:56:47;86677.59;;;-142.97;46.34
8451;BME280;4262;50.980;13.892;2023-11-18T12:59:16;86722.91;;;-142.97;46.41
8451;BME280;4262;50.980;13.892;2023-11-18T13:01:45;86691.38;;;-142.97;46.80